TAF PADL
PADL 090521Z 0906/1006 17005KT P6SM SCT150 FM090900 04010KT 6SM -SN BR OVC050 FM091200 02017G25KT 4SM -SN BR OVC015 FM091500 06020G28KT 3SM -SN BR OVC015 FM091800 07016G25KT 1/2SM SN FG OVC015=
METAR PADL
WC PADL
WS PADL
WV PADL